Battle Harbour, Canada
Current Conditions -  °F | °C
As of 9:00 AM on Wednesday 22 Oct 2014 (Local Time) from CYMH Reporting Station
Broken Clouds Broken Clouds  
Wind Chill: 28°   Ceiling: 2600
Heat Index: 34°   Visibility: 15mi
Dew Point: 28°   Wind: 7mph
Humidity: 81%   Direction: 280°W
Pressure: 30.42"   Gusts: NA
Location:  52.27°N, 55.58°W
Report Text: CYMH 221200Z 28006KT 15SM BKN026 01/M02 A3042 RMK SC7 SLP303
Loading
Personal Weather Stations






























Interactive Weather Map
Tropical Storm Tracking
New forecast layout! Learn more

10-Day Weather Forecast

Advertisements
Track Severe Weather on mobile